• Join FlightAware (Why Join?)
  • Login
  • US Flag 
10:17AM EDT


 

Airport Tracker/Info


-or-


 

Live Flight TrackerFlight Track Log ✈ N498QS ✈ 05-May-2013 ✈ KSBA - KLGB

Flight Track Log - Related Links

Times and Time Zones

All times are in EDT time to prevent confusion due to time zone crossing. See the N498QS flight status page for this flight to view local times or setup timezone preferences in your user account.

Time Position Orientation Groundspeed Altitude Reporting Facility
EDT Latitude Longitude Course Direction KTS MPH feet Rate Location/Type
12:04PM 34.4283 -119.8322 105° East 151 174 800  Level Los Angeles Center
12:05PM 34.4233 -119.8103 105° East 166 191 1,900 2,160 Climbing Los Angeles Center
12:05PM 34.4158 -119.8019 137° Southeast 169 194 2,300 2,220 Climbing Los Angeles Center
12:06PM 34.3831 -119.7739 145° Southeast 198 228 4,200 2,400 Climbing Los Angeles Center
12:06PM 34.3728 -119.7636 140° Southeast 186 214 4,800 2,820 Climbing Los Angeles Center
12:07PM 34.3072 -119.7256 154° Southeast 235 270 8,000 2,760 Climbing Los Angeles Center
12:08PM 34.2450 -119.6636 141° Southeast 280 322 10,500 1,380 Climbing Los Angeles Center
12:09PM 34.1853 -119.5758 129° Southeast 331 381 10,900 180 Climbing Los Angeles Center
12:10PM 34.1097 -119.4631 129° Southeast 357 411 10,900  Level Los Angeles Center
12:11PM 34.0489 -119.3711 129° Southeast 352 405 10,900  Level Los Angeles Center
12:12PM 33.9828 -119.2806 131° Southeast 360 414 10,900  Level Los Angeles Center
12:13PM 33.9208 -119.1908 130° Southeast 351 404 10,900  Level Los Angeles Center
12:14PM 33.8578 -119.1022 131° Southeast 350 403 10,900  Level Los Angeles Center
12:15PM 33.7950 -119.0133 130° Southeast 351 404 11,000  Climbing Los Angeles Center
12:16PM 33.7200 -118.9064 130° Southeast 352 405 11,000  Level Los Angeles Center
12:17PM 33.6575 -118.8183 130° Southeast 349 402 11,000  Level Los Angeles Center
12:18PM 33.6006 -118.7392 131° Southeast 321 369 11,000 -60 Level Los Angeles Center
12:19PM 33.5456 -118.6617 130° Southeast 310 357 10,900 -780 Descending Los Angeles Center
12:20PM 33.5269 -118.5664 103° East 302 348 9,500 -1,560 Descending Los Angeles Center
12:21PM 33.5139 -118.4564 98° East 289 333 7,800 -1,680 Descending Los Angeles Center
12:22PM 33.5386 -118.3825 68° East 257 296 6,100 -1,560 Descending Los Angeles Center
12:23PM 33.5633 -118.3106 68° East 243 280 4,600 -1,020 Descending Los Angeles Center
12:24PM 33.5833 -118.2450 70° East 227 261 4,000 -300 Descending Los Angeles Center
12:25PM 33.6031 -118.1889 67° East 203 234 4,000 -540 Level Los Angeles Center
12:26PM 33.6075 -118.1292 85° East 165 190 3,000 -1,140 Descending Los Angeles Center
12:28PM 33.6017 -118.0767 98° East 161 185 1,700 -720 Descending Los Angeles Center
12:29PM 33.6167 -118.0311 68° East 166 191 1,600 -60 Descending Los Angeles Center
12:29PM 33.6500 -118.0000 38° Northeast 171 197 1,600  Level Southern California TRACON
12:30PM 33.7000 -118.0167 345° North 173 199 1,600  Level Southern California TRACON
12:31PM 33.7333 -118.0500 320° Northwest 174 200 1,600 -120 Level Southern California TRACON
12:32PM 33.7667 -118.0833 320° Northwest 179 206 1,400 -180 Descending Southern California TRACON
12:33PM 33.7833 -118.1500 287° West 171 197 1,300 -60 Descending Southern California TRACON
12:34PM 33.8000 -118.1833 301° West 161 185 1,300  Level Southern California TRACON
12:35PM 33.8103 -118.1969 312° West 167 192 1,300 -180 Level Los Angeles Center
12:36PM 33.8444 -118.1972 360° North 161 185 1,100 -600 Descending Los Angeles Center
12:37PM 33.8261 -118.1608 121° Southeast 145 167 100 -1,020 Descending Los Angeles Center